createdAt,value
2019-05-19T04:43:23.948Z,8.10
2019-05-19T04:45:53.259Z,8.50
2019-05-19T04:48:22.435Z,8.50
2019-05-19T04:50:51.834Z,8.50
2019-05-19T04:53:21.029Z,8.50
2019-05-19T04:55:50.277Z,8.60
2019-05-19T04:58:19.500Z,8.60
2019-05-19T05:00:48.792Z,8.70
2019-05-19T05:03:19.353Z,8.80
2019-05-19T05:05:48.621Z,8.80
2019-05-19T05:08:29.489Z,8.90
2019-05-19T05:10:48.895Z,9.00
2019-05-19T05:13:18.057Z,9.10
2019-05-19T05:15:47.305Z,9.20
2019-05-19T05:18:16.583Z,9.30
2019-05-19T05:20:45.802Z,9.40
2019-05-19T05:23:15.075Z,9.50
2019-05-19T05:25:44.360Z,9.60
2019-05-19T05:28:13.640Z,9.80
2019-05-19T05:30:42.918Z,9.90
2019-05-19T05:33:12.109Z,10.10
2019-05-19T05:35:41.286Z,10.20
2019-05-19T05:38:10.522Z,10.30
2019-05-19T05:40:39.720Z,10.50
2019-05-19T05:43:08.939Z,10.70
2019-05-19T05:45:38.892Z,11.10
2019-05-19T05:48:08.106Z,11.70
2019-05-19T05:50:37.343Z,12.50
2019-05-19T05:53:06.636Z,13.70
2019-05-19T05:55:35.856Z,15.00
2019-05-19T05:58:05.168Z,16.30
2019-05-19T06:00:34.448Z,17.60
2019-05-19T06:03:03.717Z,18.00
2019-05-19T06:05:32.893Z,18.80
2019-05-19T06:08:02.163Z,18.60
2019-05-19T06:10:31.375Z,19.10
2019-05-19T06:13:00.559Z,20.20
2019-05-19T06:15:29.841Z,20.70
2019-05-19T06:17:59.107Z,21.00
2019-05-19T06:20:28.346Z,21.50
2019-05-19T06:22:57.618Z,21.90
2019-05-19T06:25:27.026Z,21.90
2019-05-19T06:27:56.441Z,22.40
2019-05-19T06:30:25.719Z,22.30
2019-05-19T06:32:56.163Z,23.00
2019-05-19T06:35:25.450Z,24.00
2019-05-19T06:37:54.693Z,24.20
2019-05-19T06:40:24.044Z,24.60
2019-05-19T06:42:53.238Z,24.30
2019-05-19T06:45:22.889Z,24.70
2019-05-19T06:47:52.518Z,25.60
2019-05-19T06:50:21.765Z,25.50
2019-05-19T06:52:51.036Z,25.60
2019-05-19T06:55:20.309Z,25.40
2019-05-19T06:57:49.576Z,25.50
2019-05-19T07:00:20.280Z,26.30
2019-05-19T07:02:49.511Z,25.50
2019-05-19T07:05:19.567Z,24.50
2019-05-19T07:07:48.825Z,24.50
2019-05-19T07:10:18.319Z,25.50
2019-05-19T07:12:47.559Z,26.20
2019-05-19T07:15:17.588Z,26.10
2019-05-19T07:17:46.979Z,26.00
2019-05-19T07:20:17.803Z,25.60
2019-05-19T07:22:47.024Z,26.90
2019-05-19T07:25:16.395Z,26.90
2019-05-19T07:27:45.654Z,27.30
2019-05-19T07:30:15.635Z,27.20
2019-05-19T07:32:44.837Z,27.20
2019-05-19T07:35:14.409Z,27.50
2019-05-19T07:37:43.621Z,27.40
2019-05-19T07:40:13.109Z,28.00
2019-05-19T07:42:42.282Z,27.80
2019-05-19T07:45:12.006Z,27.00
2019-05-19T07:47:41.488Z,26.60
2019-05-19T07:50:10.682Z,26.90
2019-05-19T07:52:39.955Z,26.40
2019-05-19T07:55:09.466Z,26.50
2019-05-19T07:57:38.847Z,26.60
2019-05-19T08:00:08.741Z,27.40
2019-05-19T08:02:38.636Z,28.00
2019-05-19T08:05:08.917Z,28.60
2019-05-19T08:07:38.302Z,27.00
2019-05-19T08:10:08.100Z,25.60
2019-05-19T08:12:37.409Z,25.90
2019-05-19T08:15:07.623Z,26.90
2019-05-19T08:17:36.800Z,27.10
2019-05-19T08:20:06.758Z,26.90
2019-05-19T08:22:35.939Z,26.90
2019-05-19T08:25:05.606Z,27.30
2019-05-19T08:27:34.846Z,27.80
2019-05-19T08:30:05.212Z,27.50
2019-05-19T08:32:35.110Z,27.20
2019-05-19T08:35:04.856Z,27.40
2019-05-19T08:37:34.047Z,26.80
2019-05-19T08:40:03.380Z,26.90
2019-05-19T08:42:32.570Z,26.60
2019-05-19T08:45:01.831Z,26.40
2019-05-19T08:47:31.271Z,25.90
2019-05-19T08:50:00.570Z,26.70
2019-05-19T08:52:29.824Z,26.90
2019-05-19T08:54:59.018Z,27.10
2019-05-19T08:57:28.256Z,27.00
2019-05-19T08:59:57.599Z,27.90
2019-05-19T09:02:26.860Z,28.00
2019-05-19T09:04:56.150Z,27.80
2019-05-19T09:07:25.438Z,28.20
2019-05-19T09:09:54.655Z,28.90
2019-05-19T09:12:23.922Z,29.10
2019-05-19T09:14:53.165Z,28.80
2019-05-19T09:17:22.408Z,28.50
2019-05-19T09:19:54.349Z,28.30
2019-05-19T09:22:24.001Z,28.10
2019-05-19T09:24:54.503Z,29.00
2019-05-19T09:27:23.742Z,28.70
2019-05-19T09:29:53.672Z,27.20
2019-05-19T09:32:22.952Z,27.50
2019-05-19T09:34:52.209Z,28.00
2019-05-19T09:37:21.385Z,28.30
2019-05-19T09:39:50.623Z,28.50
2019-05-19T09:42:19.796Z,28.70
2019-05-19T09:44:49.281Z,28.90
2019-05-19T09:47:19.006Z,28.80
2019-05-19T09:49:48.267Z,29.00
2019-05-19T09:52:17.539Z,29.00
2019-05-19T09:54:46.726Z,28.50
2019-05-19T09:57:15.928Z,28.90
2019-05-19T09:59:45.403Z,29.40
2019-05-19T10:02:14.623Z,29.10
2019-05-19T10:04:44.580Z,28.70
2019-05-19T10:07:13.920Z,28.20
2019-05-19T10:10:03.519Z,28.30
2019-05-19T10:12:32.867Z,28.80
2019-05-19T10:15:04.763Z,28.80
2019-05-19T10:17:34.022Z,29.50
2019-05-19T10:20:03.643Z,29.00
2019-05-19T10:22:33.224Z,28.70
2019-05-19T10:25:20.380Z,28.90
2019-05-19T10:27:34.583Z,29.00
2019-05-19T10:30:04.208Z,28.80
2019-05-19T10:32:33.395Z,28.40
2019-05-19T10:35:03.238Z,29.00
2019-05-19T10:37:34.432Z,29.10
2019-05-19T10:40:03.467Z,29.10
2019-05-19T10:42:32.716Z,28.30
2019-05-19T10:45:02.081Z,27.80
2019-05-19T10:47:31.327Z,27.60
2019-05-19T10:50:00.655Z,27.50
2019-05-19T10:52:29.845Z,26.70
2019-05-19T10:54:59.047Z,25.90
2019-05-19T10:57:28.363Z,25.60
2019-05-19T10:59:57.662Z,25.20
2019-05-19T11:02:26.913Z,25.70
2019-05-19T11:04:56.174Z,25.40
2019-05-19T11:07:25.336Z,25.30
2019-05-19T11:09:54.595Z,25.70
2019-05-19T11:12:23.870Z,25.80
2019-05-19T11:14:53.186Z,25.90
2019-05-19T11:17:22.522Z,25.60
2019-05-19T11:19:51.809Z,25.40
2019-05-19T11:22:21.074Z,24.80
2019-05-19T11:24:50.560Z,24.90
2019-05-19T11:27:19.902Z,24.40
2019-05-19T11:29:49.298Z,23.70
2019-05-19T11:32:20.832Z,23.80
2019-05-19T11:34:50.028Z,23.80
2019-05-19T11:37:19.383Z,23.80
2019-05-19T11:39:48.633Z,24.00
2019-05-19T11:42:17.945Z,24.30
2019-05-19T11:44:47.170Z,24.30
2019-05-19T11:47:16.445Z,24.70
2019-05-19T11:49:45.780Z,24.90
2019-05-19T11:52:15.020Z,24.90
2019-05-19T11:54:44.314Z,24.80
2019-05-19T11:57:13.533Z,24.30
2019-05-19T11:59:42.702Z,24.20
2019-05-19T12:02:12.012Z,24.30
2019-05-19T12:04:41.189Z,24.60
2019-05-19T12:07:10.488Z,24.80
2019-05-19T12:09:39.754Z,24.90
2019-05-19T12:12:11.108Z,24.70
2019-05-19T12:14:40.611Z,24.70
2019-05-19T12:17:09.919Z,24.60
2019-05-19T12:19:39.329Z,24.60
2019-05-19T12:22:08.622Z,24.70
2019-05-19T12:24:38.092Z,24.70
2019-05-19T12:27:07.740Z,24.20
2019-05-19T12:29:37.022Z,24.30
2019-05-19T12:32:06.289Z,24.40
2019-05-19T12:34:35.620Z,24.70
2019-05-19T12:37:05.270Z,25.20
2019-05-19T12:39:34.544Z,24.90
2019-05-19T12:42:03.844Z,24.40
2019-05-19T12:44:33.105Z,24.60
2019-05-19T12:47:02.409Z,24.90
2019-05-19T12:49:31.647Z,25.30
2019-05-19T12:52:00.900Z,25.00
2019-05-19T12:54:30.348Z,25.20
2019-05-19T12:56:59.755Z,25.50
2019-05-19T12:59:29.150Z,25.40
2019-05-19T13:01:58.429Z,25.50
2019-05-19T13:04:28.036Z,25.40
2019-05-19T13:06:57.301Z,25.80
2019-05-19T13:09:26.619Z,25.50
2019-05-19T13:11:55.852Z,24.70
2019-05-19T13:14:25.119Z,24.10
2019-05-19T13:16:54.316Z,23.70
2019-05-19T13:19:23.709Z,24.00
2019-05-19T13:21:53.008Z,24.30
2019-05-19T13:24:24.985Z,24.50
2019-05-19T13:26:56.850Z,24.60
2019-05-19T13:29:25.942Z,24.80
2019-05-19T13:31:55.558Z,24.90
2019-05-19T13:34:24.742Z,25.10
2019-05-19T13:36:53.928Z,25.00
2019-05-19T13:39:23.256Z,24.70
2019-05-19T13:41:52.574Z,24.20
2019-05-19T13:44:21.831Z,23.90
2019-05-19T13:46:51.114Z,24.10
2019-05-19T13:49:20.442Z,24.00
2019-05-19T13:51:49.640Z,24.50
2019-05-19T13:54:18.854Z,24.60
2019-05-19T13:56:48.238Z,24.30
2019-05-19T13:59:17.504Z,24.20
2019-05-19T14:01:47.001Z,24.30
2019-05-19T14:04:18.691Z,24.40
2019-05-19T14:06:48.086Z,24.90
2019-05-19T14:09:17.276Z,24.90
2019-05-19T14:11:46.586Z,25.20
2019-05-19T14:14:19.039Z,25.40
2019-05-19T14:16:48.303Z,25.70
2019-05-19T14:19:17.591Z,25.60
2019-05-19T14:21:46.824Z,25.50
2019-05-19T14:24:16.096Z,24.90
2019-05-19T14:26:45.355Z,24.60
2019-05-19T14:29:14.648Z,24.70
2019-05-19T14:31:44.174Z,24.60
2019-05-19T14:34:13.352Z,24.20
2019-05-19T14:36:44.386Z,24.10
2019-05-19T14:39:13.590Z,24.30
2019-05-19T14:41:47.724Z,24.40
2019-05-19T14:44:17.510Z,24.30
2019-05-19T14:46:46.902Z,24.00
2019-05-19T14:49:16.228Z,24.00
2019-05-19T14:51:45.487Z,24.20
2019-05-19T14:54:15.024Z,24.40
2019-05-19T14:56:44.241Z,24.50
2019-05-19T14:59:13.524Z,24.60
2019-05-19T15:01:42.721Z,24.70
2019-05-19T15:04:12.155Z,24.60
2019-05-19T15:06:41.532Z,24.50
2019-05-19T15:09:10.740Z,24.50
2019-05-19T15:11:40.090Z,24.40
2019-05-19T15:14:09.547Z,24.30
2019-05-19T15:16:38.762Z,24.20
2019-05-19T15:19:08.376Z,24.10
2019-05-19T15:21:37.876Z,24.10
2019-05-19T15:24:07.567Z,24.10
2019-05-19T15:26:38.319Z,23.80
2019-05-19T15:29:07.607Z,23.90
2019-05-19T15:31:37.249Z,24.10
2019-05-19T15:34:06.518Z,24.20
2019-05-19T15:36:43.347Z,24.00
2019-05-19T15:39:14.555Z,23.80
2019-05-19T15:41:43.674Z,23.60
2019-05-19T15:44:12.908Z,23.40
2019-05-19T15:46:42.251Z,23.50
2019-05-19T15:49:11.482Z,23.60
2019-05-19T15:51:55.746Z,23.60
2019-05-19T15:54:11.846Z,23.60
2019-05-19T15:56:41.335Z,23.70
2019-05-19T15:59:10.672Z,23.70
2019-05-19T16:01:39.957Z,23.70
2019-05-19T16:04:09.221Z,23.70
2019-05-19T16:06:39.221Z,23.80
2019-05-19T16:09:08.794Z,23.60
2019-05-19T16:11:38.082Z,23.40
2019-05-19T16:14:07.445Z,23.30
2019-05-19T16:16:36.687Z,23.20
2019-05-19T16:19:05.954Z,23.10
2019-05-19T16:21:35.465Z,23.00
2019-05-19T16:24:04.970Z,22.80
2019-05-19T16:26:34.150Z,22.60
2019-05-19T16:29:03.653Z,22.50
2019-05-19T16:31:32.978Z,22.40
2019-05-19T16:34:02.336Z,22.30
2019-05-19T16:36:31.688Z,22.30
2019-05-19T16:39:00.968Z,22.30
2019-05-19T16:41:30.365Z,22.30
2019-05-19T16:43:59.634Z,22.40
2019-05-19T16:46:28.937Z,22.50
2019-05-19T16:48:58.139Z,22.50
2019-05-19T16:51:28.204Z,22.40
2019-05-19T16:54:03.211Z,22.40
2019-05-19T16:56:33.612Z,22.30
2019-05-19T16:59:03.098Z,22.30
2019-05-19T17:01:32.427Z,22.10
2019-05-19T17:04:01.792Z,22.00
2019-05-19T17:06:31.458Z,22.00
2019-05-19T17:09:00.654Z,21.80
2019-05-19T17:11:30.204Z,21.80
2019-05-19T17:13:59.576Z,21.70
2019-05-19T17:16:28.941Z,21.60
2019-05-19T17:18:58.333Z,21.60
2019-05-19T17:21:27.524Z,21.60
2019-05-19T17:23:56.804Z,21.60
2019-05-19T17:26:26.092Z,21.60
2019-05-19T17:29:00.520Z,21.50
2019-05-19T17:31:26.447Z,21.50
2019-05-19T17:33:56.107Z,21.40
2019-05-19T17:36:27.474Z,21.40
2019-05-19T17:39:03.570Z,21.30
2019-05-19T17:41:32.913Z,21.30
2019-05-19T17:44:02.210Z,21.30
2019-05-19T17:46:33.112Z,21.20
2019-05-19T17:49:03.201Z,21.20
2019-05-19T17:51:32.570Z,21.10
2019-05-19T17:54:01.875Z,21.00
2019-05-19T17:56:32.277Z,20.90
2019-05-19T17:59:15.786Z,20.90
2019-05-19T18:01:35.627Z,20.90
2019-05-19T18:04:05.671Z,20.70
2019-05-19T18:06:35.416Z,20.70
2019-05-19T18:09:06.130Z,20.60
2019-05-19T18:11:36.089Z,20.50
2019-05-19T18:14:05.605Z,20.50
2019-05-19T18:16:34.957Z,20.50
2019-05-19T18:19:04.296Z,20.30
2019-05-19T18:21:33.620Z,20.10
2019-05-19T18:24:02.947Z,19.80
2019-05-19T18:26:32.418Z,19.60
2019-05-19T18:29:02.078Z,19.40
2019-05-19T18:31:31.455Z,19.30
2019-05-19T18:34:01.326Z,19.20
2019-05-19T18:36:30.584Z,19.00
2019-05-19T18:39:00.226Z,18.90
2019-05-19T18:41:29.449Z,18.70
2019-05-19T18:43:58.830Z,18.30
2019-05-19T18:46:29.886Z,18.10
2019-05-19T18:48:59.249Z,17.90
2019-05-19T18:51:29.141Z,17.80
2019-05-19T18:53:58.708Z,17.60
2019-05-19T18:56:27.950Z,17.40
2019-05-19T18:58:57.156Z,17.30
2019-05-19T19:01:26.642Z,17.20
2019-05-19T19:03:56.536Z,17.10
2019-05-19T19:06:29.391Z,17.00
2019-05-19T19:08:58.834Z,17.00
2019-05-19T19:11:28.937Z,16.90
2019-05-19T19:13:58.294Z,16.80
2019-05-19T19:16:27.941Z,16.80
2019-05-19T19:18:57.453Z,16.70
2019-05-19T19:21:29.488Z,16.60
2019-05-19T19:23:58.778Z,16.50
2019-05-19T19:26:28.258Z,16.40
2019-05-19T19:28:58.311Z,16.40
2019-05-19T19:31:27.899Z,16.40
2019-05-19T19:33:57.860Z,16.30
2019-05-19T19:36:27.217Z,16.30
2019-05-19T19:38:56.497Z,16.30
2019-05-19T19:41:25.936Z,16.20
2019-05-19T19:43:55.466Z,16.20
2019-05-19T19:46:25.451Z,16.20
2019-05-19T19:48:54.858Z,16.10
2019-05-19T19:51:24.327Z,16.00
2019-05-19T19:53:53.680Z,16.00
2019-05-19T19:56:23.333Z,16.00
2019-05-19T19:58:52.606Z,16.00
2019-05-19T20:01:21.872Z,16.00
2019-05-19T20:03:51.348Z,16.00
2019-05-19T20:06:20.628Z,16.00
2019-05-19T20:08:50.993Z,15.90
2019-05-19T20:11:21.568Z,15.80
2019-05-19T20:13:53.694Z,15.80
2019-05-19T20:16:23.186Z,15.70
2019-05-19T20:18:52.605Z,15.60
2019-05-19T20:21:21.997Z,15.50
2019-05-19T20:23:51.631Z,15.50
2019-05-19T20:26:21.015Z,15.30
2019-05-19T20:28:50.607Z,15.20
2019-05-19T20:31:20.921Z,15.10
2019-05-19T20:33:50.322Z,15.10
2019-05-19T20:36:19.607Z,15.00
2019-05-19T20:38:48.895Z,14.90
2019-05-19T20:41:18.150Z,14.80
2019-05-19T20:43:47.387Z,14.70
2019-05-19T20:46:16.768Z,14.60
2019-05-19T20:48:46.113Z,14.60
2019-05-19T20:51:15.476Z,14.50
2019-05-19T20:53:44.642Z,14.40
2019-05-19T20:56:17.271Z,14.30
2019-05-19T20:58:46.450Z,14.20
2019-05-19T21:01:18.743Z,14.10
2019-05-19T21:03:47.965Z,14.00
2019-05-19T21:06:17.143Z,14.00
2019-05-19T21:08:46.427Z,14.00
2019-05-19T21:11:16.016Z,13.90
2019-05-19T21:13:45.282Z,13.80
2019-05-19T21:16:14.526Z,13.70
2019-05-19T21:18:43.808Z,13.70
2019-05-19T21:21:13.271Z,13.70
2019-05-19T21:23:42.832Z,13.70
2019-05-19T21:26:12.075Z,13.60
2019-05-19T21:28:41.299Z,13.60
2019-05-19T21:31:10.474Z,13.50
2019-05-19T21:33:39.777Z,13.50
2019-05-19T21:36:09.039Z,13.50
2019-05-19T21:38:40.491Z,13.50
2019-05-19T21:41:10.880Z,13.50
2019-05-19T21:43:40.115Z,13.40
2019-05-19T21:46:09.955Z,13.40
2019-05-19T21:48:39.367Z,13.30
2019-05-19T21:51:08.589Z,13.30
2019-05-19T21:53:40.182Z,13.30
2019-05-19T21:56:09.433Z,13.30
2019-05-19T21:58:38.676Z,13.30
